Terminal Aerodrome Forecast
Issued by NWS

Home | Current Version | Previous Version | Graphics & Text | Print | Product List | Glossary On
Versions: 1 2 3 4 5 6 7 8 9 10 11 12 13 14 15
267
FTUS42 KMHX 240539
TAFISO
TAF
KISO 240539Z 2406/2506 VRB03KT 3SM BR SCT200
      TEMPO 2406/2410 1SM BR
     FM241000 VRB03KT 5SM BR SCT150
      TEMPO 2410/2412 1SM BR
     FM241400 VRB04KT P6SM SCT120
      AMD LTD TO CLD VIS AND WIND=

USA.gov is the U.S. government's official web portal to all federal, state and local government web resources and services.